Flight Track Log - Related Links

Times and Time Zones

All times are in EST time to prevent confusion due to time zone crossing. See the UAL1116 flight status page for this flight to view local times or setup timezone preferences in your user account.

Time Position Orientation Groundspeed Altitude Reporting Facility
EST Latitude Longitude Course Direction KTS MPH feet Rate Location/Type
Wed 05:48:00 PM 19.5560 -99.0838 352° North  Level FlightAware Approximate
Wed 05:49:00 PM 19.6689 -99.1011 352° North  Level FlightAware Approximate
Wed 05:50:00 PM 19.7908 -99.1198 352° North  Level FlightAware Approximate
Wed 05:51:00 PM 19.9127 -99.1385 352° North  Level FlightAware Approximate
Wed 05:52:00 PM 20.0346 -99.1573 352° North  Level FlightAware Approximate
Wed 05:53:00 PM 20.1565 -99.1760 352° North  Level FlightAware Approximate
Wed 05:54:00 PM 20.2784 -99.1948 352° North  Level FlightAware Approximate
Wed 05:55:00 PM 20.4003 -99.2137 352° North  Level FlightAware Approximate
Wed 05:56:00 PM 20.5222 -99.2325 352° North  Level FlightAware Approximate
Wed 05:57:00 PM 20.6441 -99.2514 352° North  Level FlightAware Approximate
Wed 05:58:00 PM 20.7645 -99.2701 352° North  Level FlightAware Approximate
Wed 05:59:00 PM 20.8848 -99.2888 352° North  Level FlightAware Approximate
Wed 06:00:00 PM 21.0052 -99.3076 352° North  Level FlightAware Approximate
Wed 06:01:00 PM 21.1256 -99.3263 352° North  Level FlightAware Approximate
Wed 06:02:00 PM 21.2459 -99.3452 352° North  Level FlightAware Approximate
Wed 06:03:00 PM 21.3663 -99.3640 352° North  Level FlightAware Approximate
Wed 06:04:00 PM 21.4912 -99.3844 351° North  Level FlightAware Approximate
Wed 06:05:00 PM 21.6114 -99.4042 351° North  Level FlightAware Approximate
Wed 06:06:00 PM 21.7316 -99.4240 351° North  Level FlightAware Approximate
Wed 06:07:00 PM 21.8519 -99.4439 351° North  Level FlightAware Approximate
Wed 06:08:00 PM 21.9721 -99.4638 351° North  Level FlightAware Approximate
Wed 06:09:00 PM 22.0923 -99.4837 351° North  Level FlightAware Approximate
Wed 06:10:00 PM 22.2125 -99.5037 351° North  Level FlightAware Approximate
Wed 06:11:00 PM 22.3328 -99.5237 351° North  Level FlightAware Approximate
Wed 06:12:00 PM 22.4530 -99.5437 351° North  Level FlightAware Approximate
Wed 06:13:00 PM 22.5732 -99.5638 351° North  Level FlightAware Approximate
Wed 06:14:00 PM 22.6934 -99.5839 351° North  Level FlightAware Approximate
Wed 06:15:00 PM 22.8136 -99.6040 351° North  Level FlightAware Approximate
Wed 06:16:00 PM 22.9338 -99.6242 351° North  Level FlightAware Approximate
Wed 06:17:00 PM 23.0311 -99.6406 351° North  Level FlightAware Approximate
Wed 06:18:00 PM 23.1284 -99.6570 351° North  Level FlightAware Approximate
Wed 06:19:00 PM 23.2257 -99.6734 351° North  Level FlightAware Approximate
Wed 06:20:00 PM 23.3230 -99.6898 351° North  Level FlightAware Approximate
Wed 06:21:00 PM 23.4204 -99.7053 353° North  Level FlightAware Approximate
Wed 06:22:00 PM 23.5180 -99.7192 353° North  Level FlightAware Approximate
Wed 06:23:00 PM 23.6156 -99.7332 353° North  Level FlightAware Approximate
Wed 06:24:00 PM 23.7129 -99.7498 351° North  Level FlightAware Approximate
Wed 06:25:00 PM 23.8101 -99.7664 351° North  Level FlightAware Approximate
Wed 06:26:00 PM 23.9074 -99.7831 351° North  Level FlightAware Approximate
Wed 06:27:00 PM 24.0046 -99.7998 351° North  Level FlightAware Approximate
Wed 06:28:00 PM 24.1019 -99.8165 351° North  Level FlightAware Approximate
Wed 06:29:00 PM 24.1992 -99.8332 351° North  Level FlightAware Approximate
Wed 06:30:00 PM 24.2964 -99.8500 351° North  Level FlightAware Approximate
Wed 06:31:00 PM 24.3937 -99.8668 351° North  Level FlightAware Approximate
Wed 06:32:00 PM 24.4909 -99.8836 351° North  Level FlightAware Approximate
Wed 06:33:00 PM 24.5882 -99.9005 351° North  Level FlightAware Approximate
Wed 06:34:00 PM 24.6854 -99.9173 351° North  Level FlightAware Approximate
Wed 06:35:00 PM 24.7826 -99.9342 351° North  Level FlightAware Approximate
Wed 06:36:00 PM 24.8799 -99.9511 351° North  Level FlightAware Approximate
Wed 06:37:00 PM 24.9771 -99.9681 351° North  Level FlightAware Approximate
Wed 06:38:00 PM 25.0744 -99.9851 351° North  Level FlightAware Approximate
Wed 06:39:00 PM 25.1716 -100.0021 351° North  Level FlightAware Approximate
Wed 06:40:00 PM 25.2688 -100.0191 351° North  Level FlightAware Approximate
Wed 06:41:00 PM 25.3661 -100.0362 351° North  Level FlightAware Approximate
Wed 06:42:00 PM 25.4632 -100.0539 351° North  Level FlightAware Approximate
Wed 06:43:00 PM 25.5467 -100.0931 299° West  Level FlightAware Approximate
Wed 06:44:00 PM 25.5949 -100.1883 299° West  Level FlightAware Approximate
Wed 06:45:00 PM 25.6430 -100.2836 299° West  Level FlightAware Approximate
Wed 06:46:00 PM 25.6910 -100.3790 299° West  Level FlightAware Approximate
Wed 06:47:00 PM 25.7389 -100.4744 299° West  Level FlightAware Approximate
Wed 06:48:00 PM 25.7868 -100.5699 299° West  Level FlightAware Approximate
Wed 06:49:00 PM 25.8347 -100.6655 299° West  Level FlightAware Approximate
Wed 06:50:00 PM 25.8824 -100.7611 299° West  Level FlightAware Approximate
Wed 06:51:00 PM 25.9301 -100.8569 299° West  Level FlightAware Approximate
Wed 06:52:00 PM 25.9778 -100.9527 299° West  Level FlightAware Approximate
Wed 06:53:00 PM 26.0254 -101.0486 299° West  Level FlightAware Approximate
Wed 06:54:00 PM 26.0729 -101.1445 299° West  Level FlightAware Approximate
Wed 06:55:00 PM 26.1203 -101.2406 299° West  Level FlightAware Approximate
Wed 06:56:00 PM 26.1677 -101.3367 299° West  Level FlightAware Approximate
Wed 06:57:00 PM 26.2150 -101.4329 299° West  Level FlightAware Approximate
Wed 06:58:00 PM 26.2623 -101.5292 299° West  Level FlightAware Approximate
Wed 06:59:00 PM 26.3095 -101.6256 299° West  Level FlightAware Approximate
Wed 07:00:00 PM 26.3566 -101.7220 299° West  Level FlightAware Approximate
Wed 07:01:00 PM 26.4037 -101.8185 299° West  Level FlightAware Approximate
Wed 07:02:00 PM 26.4507 -101.9151 299° West  Level FlightAware Approximate
Wed 07:03:00 PM 26.4976 -102.0118 298° West  Level FlightAware Approximate
Wed 07:04:00 PM 26.5446 -102.1085 298° West  Level FlightAware Approximate
Wed 07:05:00 PM 26.5914 -102.2053 298° West  Level FlightAware Approximate
Wed 07:06:00 PM 26.6382 -102.3022 298° West  Level FlightAware Approximate
Wed 07:07:00 PM 26.6849 -102.3992 298° West  Level FlightAware Approximate
Wed 07:08:00 PM 26.7316 -102.4962 298° West  Level FlightAware Approximate
Wed 07:09:00 PM 26.7782 -102.5933 298° West  Level FlightAware Approximate
Wed 07:10:00 PM 26.8248 -102.6905 298° West  Level FlightAware Approximate
Wed 07:11:00 PM 26.8712 -102.7878 298° West  Level FlightAware Approximate
Wed 07:12:00 PM 26.9176 -102.8852 298° West  Level FlightAware Approximate
Wed 07:13:00 PM 26.9639 -102.9826 298° West  Level FlightAware Approximate
Wed 07:14:00 PM 27.0102 -103.0801 298° West  Level FlightAware Approximate
Wed 07:15:00 PM 27.0564 -103.1777 298° West  Level FlightAware Approximate
Wed 07:16:00 PM 27.1026 -103.2754 298° West  Level FlightAware Approximate
Wed 07:17:00 PM 27.1486 -103.3732 298° West  Level FlightAware Approximate
Wed 07:18:00 PM 27.1946 -103.4710 298° West  Level FlightAware Approximate
Wed 07:19:00 PM 27.2405 -103.5689 298° West  Level FlightAware Approximate
Wed 07:20:00 PM 27.2864 -103.6669 298° West  Level FlightAware Approximate
Wed 07:21:00 PM 27.3322 -103.7650 298° West  Level FlightAware Approximate
Wed 07:22:00 PM 27.3779 -103.8632 298° West  Level FlightAware Approximate
Wed 07:23:00 PM 27.4236 -103.9614 298° West  Level FlightAware Approximate
Wed 07:24:00 PM 27.4692 -104.0597 298° West  Level FlightAware Approximate
Wed 07:25:00 PM 27.5147 -104.1581 298° West  Level FlightAware Approximate
Wed 07:26:00 PM 27.5601 -104.2566 298° West  Level FlightAware Approximate
Wed 07:27:00 PM 27.6055 -104.3552 297° West  Level FlightAware Approximate
Wed 07:28:00 PM 27.6508 -104.4538 297° West  Level FlightAware Approximate
Wed 07:29:00 PM 27.6961 -104.5526 297° West  Level FlightAware Approximate
Wed 07:30:00 PM 27.7412 -104.6514 297° West  Level FlightAware Approximate
Wed 07:31:00 PM 27.7863 -104.7503 297° West  Level FlightAware Approximate
Wed 07:32:00 PM 27.8314 -104.8493 297° West  Level FlightAware Approximate
Wed 07:33:00 PM 27.8763 -104.9483 297° West  Level FlightAware Approximate
Wed 07:34:00 PM 27.9212 -105.0475 297° West  Level FlightAware Approximate
Wed 07:35:00 PM 27.9660 -105.1467 297° West  Level FlightAware Approximate
Wed 07:36:00 PM 28.0107 -105.2460 297° West  Level FlightAware Approximate
Wed 07:37:00 PM 28.0554 -105.3454 297° West  Level FlightAware Approximate
Wed 07:38:00 PM 28.1000 -105.4448 297° West  Level FlightAware Approximate
Wed 07:39:00 PM 28.1445 -105.5444 297° West  Level FlightAware Approximate
Wed 07:40:00 PM 28.1890 -105.6440 297° West  Level FlightAware Approximate
Wed 07:41:00 PM 28.2333 -105.7438 297° West  Level FlightAware Approximate
Wed 07:42:00 PM 28.2776 -105.8436 297° West  Level FlightAware Approximate
Wed 07:43:00 PM 28.3219 -105.9435 297° West  Level FlightAware Approximate
Wed 07:44:00 PM 28.3660 -106.0434 297° West  Level FlightAware Approximate
Wed 07:45:00 PM 28.4101 -106.1435 297° West  Level FlightAware Approximate
Wed 07:46:00 PM 28.4541 -106.2437 297° West  Level FlightAware Approximate
Wed 07:47:00 PM 28.4981 -106.3439 297° West  Level FlightAware Approximate
Wed 07:48:00 PM 28.5419 -106.4442 296° West  Level FlightAware Approximate
Wed 07:49:00 PM 28.5857 -106.5446 296° West  Level FlightAware Approximate
Wed 07:50:00 PM 28.6294 -106.6451 296° West  Level FlightAware Approximate
Wed 07:51:00 PM 28.6730 -106.7456 296° West  Level FlightAware Approximate
Wed 07:52:00 PM 28.7166 -106.8463 296° West  Level FlightAware Approximate
Wed 07:53:00 PM 28.7601 -106.9470 296° West  Level FlightAware Approximate
Wed 07:54:00 PM 28.8035 -107.0478 296° West  Level FlightAware Approximate
Wed 07:55:00 PM 28.8469 -107.1487 296° West  Level FlightAware Approximate
Wed 07:56:00 PM 28.8901 -107.2497 296° West  Level FlightAware Approximate
Wed 07:57:00 PM 28.9333 -107.3507 296° West  Level FlightAware Approximate
Wed 07:58:00 PM 28.9764 -107.4519 296° West  Level FlightAware Approximate
Wed 07:59:00 PM 29.0195 -107.5531 296° West  Level FlightAware Approximate
Wed 08:00:00 PM 29.0625 -107.6544 296° West  Level FlightAware Approximate
Wed 08:01:00 PM 29.1053 -107.7558 296° West  Level FlightAware Approximate
Wed 08:02:00 PM 29.1370 -107.8309 296° West  Level FlightAware Approximate
Wed 08:03:00 PM 29.1687 -107.9061 296° West  Level FlightAware Approximate
Wed 08:04:00 PM 29.2003 -107.9813 296° West  Level FlightAware Approximate
Wed 08:05:00 PM 29.2319 -108.0565 296° West  Level FlightAware Approximate
Wed 08:06:00 PM 29.2634 -108.1318 296° West  Level FlightAware Approximate
Wed 08:07:00 PM 29.2949 -108.2071 296° West  Level FlightAware Approximate
Wed 08:08:00 PM 29.3263 -108.2825 296° West  Level FlightAware Approximate
Wed 08:09:00 PM 29.3577 -108.3579 296° West  Level FlightAware Approximate
Wed 08:10:00 PM 29.3890 -108.4334 296° West  Level FlightAware Approximate
Wed 08:11:00 PM 29.4203 -108.5089 295° West  Level FlightAware Approximate
Wed 08:12:00 PM 29.4515 -108.5845 295° West  Level FlightAware Approximate
Wed 08:13:00 PM 29.4826 -108.6602 295° West  Level FlightAware Approximate
Wed 08:14:00 PM 29.5137 -108.7359 295° West  Level FlightAware Approximate
Wed 08:15:00 PM 29.5447 -108.8117 295° West  Level FlightAware Approximate
Wed 08:16:00 PM 29.5757 -108.8875 295° West  Level FlightAware Approximate
Wed 08:17:00 PM 29.6067 -108.9634 295° West  Level FlightAware Approximate
Wed 08:18:00 PM 29.6376 -109.0393 295° West  Level FlightAware Approximate
Wed 08:19:00 PM 29.6684 -109.1152 295° West  Level FlightAware Approximate
Wed 08:20:00 PM 29.6992 -109.1912 295° West  Level FlightAware Approximate
Wed 08:21:00 PM 29.7300 -109.2673 295° West  Level FlightAware Approximate
Wed 08:22:00 PM 29.7607 -109.3434 295° West  Level FlightAware Approximate
Wed 08:23:00 PM 29.7914 -109.4195 295° West  Level FlightAware Approximate
Wed 08:24:00 PM 29.8221 -109.4957 295° West  Level FlightAware Approximate
Wed 08:25:00 PM 29.8526 -109.5719 295° West  Level FlightAware Approximate
Wed 08:26:00 PM 29.8832 -109.6482 295° West  Level FlightAware Approximate
Wed 08:27:00 PM 29.9137 -109.7245 295° West  Level FlightAware Approximate
Wed 08:28:00 PM 29.9442 -109.8009 295° West  Level FlightAware Approximate
Wed 08:29:00 PM 29.9746 -109.8773 295° West  Level FlightAware Approximate
Wed 08:30:00 PM 30.0050 -109.9538 295° West  Level FlightAware Approximate
Wed 08:31:00 PM 30.0353 -110.0303 295° West  Level FlightAware Approximate
Wed 08:32:00 PM 30.0656 -110.1068 295° West  Level FlightAware Approximate
Wed 08:33:00 PM 30.0958 -110.1834 295° West  Level FlightAware Approximate
Wed 08:34:00 PM 30.1260 -110.2601 295° West  Level FlightAware Approximate
Wed 08:35:00 PM 30.1562 -110.3368 294° West  Level FlightAware Approximate
Wed 08:36:00 PM 30.1863 -110.4135 294° West  Level FlightAware Approximate
Wed 08:37:00 PM 30.2164 -110.4903 294° West  Level FlightAware Approximate
Wed 08:38:00 PM 30.2464 -110.5671 294° West  Level FlightAware Approximate
Wed 08:39:00 PM 30.2764 -110.6440 294° West  Level FlightAware Approximate
Wed 08:40:00 PM 30.3063 -110.7210 294° West  Level FlightAware Approximate
Wed 08:40:52 PM 32.0096 -115.9827 294° West 406 467 38,000  Level FlightAware ADS-B
Wed 08:44:59 PM 32.2606 -116.4382 319° Northwest 411 473 38,000  Level FlightAware ADS-B
Wed 08:45:00 PM 32.3761 -116.3646 319° Northwest  Level Estimated
Wed 08:45:29 PM 32.2950 -116.5010 303° West 412 474 38,000  Level FlightAware ADS-B
Wed 08:45:55 PM 32.3156 -116.5428 311° West 410 472 37,900  Descending Los Angeles Center
Wed 08:46:24 PM 32.3478 -116.5975 303° West 411 473 38,000 90 Climbing FlightAware ADS-B
Wed 08:47:02 PM 32.3907 -116.6763 303° West 411 473 38,000  Level FlightAware ADS-B
Wed 08:47:44 PM 32.4338 -116.7555 303° West 410 472 38,000  Level FlightAware ADS-B
Wed 08:48:22 PM 32.4723 -116.8265 303° West 409 471 38,000  Level FlightAware ADS-B
Wed 08:51:00 PM 32.6518 -117.1232 311° West  Level FlightAware Approximate
Wed 08:51:25 PM 32.6813 -117.1470 311° West 401 461 38,000  Level FlightAware ADS-B
Wed 08:52:04 PM 32.7268 -117.2101 311° West 399 459 38,000  Level FlightAware ADS-B
Wed 08:52:42 PM 32.7722 -117.2731 311° West 398 458 38,000  Level FlightAware ADS-B
Wed 08:53:46 PM 32.8492 -117.3801 311° West 397 457 38,000  Level FlightAware ADS-B
Wed 08:54:18 PM 32.8886 -117.4352 310° West 397 457 38,000  Level FlightAware ADS-B
Wed 08:54:58 PM 32.9320 -117.4960 310° West 399 459 38,000  Level FlightAware ADS-B
Wed 08:55:44 PM 32.9821 -117.5660 310° West 401 461 38,000  Level FlightAware ADS-B
Wed 08:56:21 PM 33.0359 -117.6414 310° West 402 463 38,000  Level FlightAware ADS-B
Wed 08:57:33 PM 33.0530 -117.6654 310° West 403 464 38,000  Level FlightAware ADS-B
Wed 08:58:37 PM 33.1999 -117.8722 310° West 404 465 38,000  Level FlightAware ADS-B
Wed 08:59:15 PM 33.2410 -117.9304 310° West 405 466 38,000  Level FlightAware ADS-B
Wed 08:59:46 PM 33.2816 -117.9880 310° West 404 465 38,000  Level FlightAware ADS-B
Wed 09:00:19 PM 33.3203 -118.0426 310° West 406 467 38,000  Level FlightAware ADS-B
Wed 09:01:05 PM 33.3788 -118.1258 310° West 407 468 38,000  Level FlightAware ADS-B
Wed 09:01:43 PM 33.4227 -118.1883 310° West 408 470 38,000  Level FlightAware ADS-B
Wed 09:02:25 PM 33.4740 -118.2614 310° West 408 470 38,000  Level FlightAware ADS-B
Wed 09:03:13 PM 33.5341 -118.3474 310° West 408 470 38,000  Level FlightAware ADS-B
Wed 09:03:44 PM 33.5706 -118.3997 310° West 408 470 38,000  Level FlightAware ADS-B
Wed 09:04:15 PM 33.6089 -118.4546 310° West 408 470 38,000  Level FlightAware ADS-B
Wed 09:04:59 PM 33.6602 -118.5283 310° West 408 470 38,000  Level FlightAware ADS-B
Wed 09:05:35 PM 33.7046 -118.5922 310° West 408 470 38,000  Level FlightAware ADS-B
Wed 09:06:21 PM 33.7600 -118.6720 310° West 408 470 38,000  Level FlightAware ADS-B
Wed 09:07:02 PM 33.8092 -118.7433 310° West 409 471 38,000  Level FlightAware ADS-B
Wed 09:07:39 PM 33.8507 -118.8028 310° West 409 471 38,000  Level FlightAware ADS-B
Wed 09:09:00 PM 33.9633 -118.9355 316° Northwest 408 470 38,000  Level FlightAware ADS-B
Wed 09:10:08 PM 34.0480 -119.0349 316° Northwest 409 471 38,000  Level FlightAware ADS-B
Wed 09:10:42 PM 34.1012 -119.0973 316° Northwest 409 471 38,000  Level FlightAware ADS-B
Wed 09:11:29 PM 34.1640 -119.1716 316° Northwest 411 473 38,000  Level FlightAware ADS-B
Wed 09:12:12 PM 34.2178 -119.2352 316° Northwest 412 474 38,000  Level FlightAware ADS-B
Wed 09:12:48 PM 34.2718 -119.2990 316° Northwest 413 475 38,000  Level FlightAware ADS-B
Wed 09:13:34 PM 34.3352 -119.3742 316° Northwest 414 476 38,000  Level FlightAware ADS-B
Wed 09:14:09 PM 34.3824 -119.4302 316° Northwest 414 476 38,000  Level FlightAware ADS-B
Wed 09:14:50 PM 34.4398 -119.4987 316° Northwest 416 479 38,000  Level FlightAware ADS-B
Wed 09:15:36 PM 34.5023 -119.5731 316° Northwest 414 476 38,000  Level FlightAware ADS-B
Wed 09:16:18 PM 34.5595 -119.6415 315° West 413 475 38,000  Level FlightAware ADS-B
Wed 09:17:05 PM 34.6233 -119.7180 315° West 414 476 38,000  Level FlightAware ADS-B
Wed 09:17:46 PM 34.6783 -119.7840 315° West 414 476 38,000  Level FlightAware ADS-B
Wed 09:18:24 PM 34.7312 -119.8477 315° West 414 476 38,000  Level FlightAware ADS-B
Wed 09:19:03 PM 34.7830 -119.9101 315° West 414 476 38,000  Level FlightAware ADS-B
Wed 09:19:51 PM 34.8462 -119.9865 315° West 414 476 38,000  Level FlightAware ADS-B
Wed 09:20:30 PM 34.9012 -120.0533 315° West 414 476 38,000  Level FlightAware ADS-B
Wed 09:21:10 PM 34.9567 -120.1206 315° West 414 476 38,000  Level FlightAware ADS-B
Wed 09:21:51 PM 35.0095 -120.1847 315° West 414 476 38,000  Level FlightAware ADS-B
Wed 09:22:34 PM 35.0683 -120.2562 315° West 412 474 38,000  Level FlightAware ADS-B
Wed 09:23:15 PM 35.1167 -120.3153 315° West 411 473 38,000  Level FlightAware ADS-B
Wed 09:23:54 PM 35.1555 -120.3627 315° West 409 471 38,000  Level FlightAware ADS-B
Wed 09:25:21 PM 35.2928 -120.5312 315° West 407 468 38,000  Level FlightAware ADS-B
Wed 09:25:51 PM 35.3329 -120.5805 315° West 407 468 38,000  Level FlightAware ADS-B
Wed 09:27:19 PM 35.4545 -120.7182 317° Northwest 406 467 38,000  Level FlightAware ADS-B
Wed 09:32:04 PM 35.8760 -121.1190 322° Northwest 405 466 38,000 -50 Level FlightAware ADS-B
Wed 09:33:19 PM 35.9811 -121.2186 322° Northwest 401 461 37,700 -1,103 Descending Oakland Center
Wed 09:34:20 PM 36.0672 -121.3025 322° Northwest 393 452 35,500 -2,410 Descending Oakland Center
Wed 09:35:21 PM 36.1533 -121.3842 323° Northwest 391 450 32,800 -2,557 Descending Oakland Center
Wed 09:36:22 PM 36.2392 -121.4697 321° Northwest 394 453 30,300 -2,331 Descending Oakland Center
Wed 09:37:22 PM 36.3247 -121.5497 323° Northwest 385 443 28,100 -2,091 Descending Oakland Center
Wed 09:42:58 PM 36.7901 -121.9760 323° Northwest 347 399 16,500 -2,068 Descending FlightAware ADS-B
Wed 09:43:42 PM 36.8581 -121.9940 348° North 343 395 15,000 -2,027 Descending FlightAware ADS-B
Wed 09:44:12 PM 36.9048 -122.0060 348° North 339 390 14,000 -1,935 Descending FlightAware ADS-B
Wed 09:44:44 PM 36.9530 -122.0190 348° North 336 387 13,000 -1,905 Descending FlightAware ADS-B
Wed 09:45:15 PM 36.9993 -122.0310 348° North 329 379 12,000 -1,750 Descending FlightAware ADS-B
Wed 09:45:56 PM 37.0594 -122.0470 348° North 324 373 10,900 -1,479 Descending FlightAware ADS-B
Wed 09:46:28 PM 37.1046 -122.0590 348° North 306 352 10,200 -900 Descending FlightAware ADS-B
Wed 09:46:56 PM 37.1429 -122.0690 348° North 287 330 10,000 -409 Descending FlightAware ADS-B
Wed 09:47:12 PM 37.1626 -122.0740 349° North 282 325 9,900 -387 Descending FlightAware ADS-B
Wed 09:47:27 PM 37.1825 -122.0790 349° North 276 318 9,800 -545 Descending FlightAware ADS-B
Wed 09:47:45 PM 37.2037 -122.0850 347° North 263 303 9,600 -375 Descending FlightAware ADS-B
Wed 09:47:59 PM 37.2206 -122.0890 349° North 250 288 9,600 -800 Level FlightAware ADS-B
Wed 09:48:15 PM 37.2376 -122.0940 347° North 247 284 9,200 -1,742 Descending FlightAware ADS-B
Wed 09:48:30 PM 37.2549 -122.0980 350° North 248 285 8,700 -1,600 Descending FlightAware ADS-B
Wed 09:48:45 PM 37.2719 -122.1030 347° North 244 281 8,400 -1,548 Descending FlightAware ADS-B
Wed 09:49:01 PM 37.2889 -122.1070 349° North 246 283 7,900 -1,742 Descending FlightAware ADS-B
Wed 09:49:16 PM 37.3063 -122.1120 347° North 243 280 7,500 -1,778 Descending FlightAware ADS-B
Wed 09:49:28 PM 37.3196 -122.1150 350° North 245 282 7,100 -2,000 Descending FlightAware ADS-B
Wed 09:49:43 PM 37.3363 -122.1200 347° North 247 284 6,600 -1,935 Descending FlightAware ADS-B
Wed 09:49:59 PM 37.3535 -122.1250 347° North 246 283 6,100 -1,548 Descending FlightAware ADS-B
Wed 09:50:14 PM 37.3705 -122.1290 349° North 240 276 5,800 -600 Descending FlightAware ADS-B
Wed 09:50:29 PM 37.3871 -122.1330 349° North 236 272 5,800  Level FlightAware ADS-B
Wed 09:50:45 PM 37.4037 -122.1380 347° North 234 269 5,800  Level FlightAware ADS-B
Wed 09:51:00 PM 37.4199 -122.1420 349° North 229 264 5,800  Level FlightAware ADS-B
Wed 09:51:16 PM 37.4354 -122.1460 348° North 227 261 5,800  Level FlightAware ADS-B
Wed 09:51:31 PM 37.4507 -122.1500 348° North 224 258 5,800 -667 Level FlightAware ADS-B
Wed 09:51:43 PM 37.4634 -122.1540 346° North 222 255 5,500 -1,500 Descending FlightAware ADS-B
Wed 09:51:51 PM 37.4709 -122.1560 348° North 221 254 5,300 -1,565 Descending FlightAware ADS-B
Wed 09:52:06 PM 37.4866 -122.1610 346° North 218 251 4,900 -1,548 Descending FlightAware ADS-B
Wed 09:52:22 PM 37.5019 -122.1660 345° North 216 249 4,500 -1,500 Descending FlightAware ADS-B
Wed 09:52:26 PM 37.5052 -122.1670 346° North 216 249 4,400 -1,714 Descending FlightAware ADS-B
Wed 09:52:29 PM 37.5078 -122.1690 329° Northwest 216 249 4,300 -1,714 Descending FlightAware ADS-B
Wed 09:52:33 PM 37.5114 -122.1710 336° Northwest 216 249 4,200 -750 Descending FlightAware ADS-B
Wed 09:52:37 PM 37.5147 -122.1740 324° Northwest 216 249 4,200 -1,412 Level FlightAware ADS-B
Wed 09:52:50 PM 37.5256 -122.1840 324° Northwest 215 247 3,800 -1,241 Descending FlightAware ADS-B
Wed 09:53:06 PM 37.5377 -122.1960 322° Northwest 206 237 3,600 -818 Descending FlightAware ADS-B
Wed 09:53:12 PM 37.5422 -122.2000 325° Northwest 202 232 3,500 -1,333 Descending FlightAware ADS-B
Wed 09:53:15 PM 37.5444 -122.2030 313° West 201 231 3,400 -1,000 Descending FlightAware ADS-B
Wed 09:53:18 PM 37.5465 -122.2060 311° West 199 229 3,400 -1,000 Level FlightAware ADS-B
Wed 09:53:21 PM 37.5483 -122.2080 319° Northwest 197 227 3,300 -857 Descending FlightAware ADS-B
Wed 09:53:25 PM 37.5503 -122.2120 302° West 196 226 3,300 -667 Level FlightAware ADS-B
Wed 09:53:30 PM 37.5523 -122.2160 302° West 196 226 3,200 -1,565 Descending FlightAware ADS-B
Wed 09:53:48 PM 37.5596 -122.2350 296° West 189 217 2,700 -1,765 Descending FlightAware ADS-B
Wed 09:54:04 PM 37.5660 -122.2500 298° West 188 216 2,200 -1,355 Descending FlightAware ADS-B
Wed 09:54:19 PM 37.5719 -122.2640 298° West 177 204 2,000 -1,000 Descending FlightAware ADS-B
Wed 09:54:28 PM 37.5752 -122.2720 297° West 172 198 1,800 -1,750 Descending FlightAware ADS-B
Wed 09:54:43 PM 37.5808 -122.2850 299° West 173 199 1,300 -1,688 Descending FlightAware ADS-B
Wed 09:55:00 PM 37.5869 -122.3000 297° West 162 186 900 -1,231 Descending FlightAware ADS-B
Wed 09:55:22 PM 37.5946 -122.3180 298° West 153 176 500 -923 Descending FlightAware ADS-B
Wed 09:55:39 PM 37.6000 -122.3310 298° West 146 168 300 -750 Descending FlightAware ADS-B
Wed 09:55:54 PM 37.6047 -122.3420 298° West 153 176 100 -800 Descending FlightAware ADS-B
Wed 09:56:13 PM 37.6111 -122.3570 298° West 155 178 -316 Descending FlightAware ADS-B
Wed 09:56:32 PM 37.6170 -122.3710 298° West 125 144  Level FlightAware ADS-B

Login

Don't have an account? Register now (free) for customized features, flight alerts, and more!